Time;durP1;ratioP1;P1;durP2;ratioP2;P2;SDS_P1;SDS_P2;PMS_P1;PMS_P2;Temp;Humidity;BMP_temperature;BMP_pressure;BME280_temperature;BME280_humidity;BME280_pressure;Samples;Min_cycle;Max_cycle;Signal;HPM_P1;HPM_P2
2023/06/30 00:01:33;;;;;;;11.03;9.87;;;25.40;77.20;;;;;;6265470;22;20974;-66
2023/06/30 00:03:59;;;;;;;11.40;9.40;;;25.30;77.50;;;;;;6265636;22;20374;-67
2023/06/30 00:06:25;;;;;;;15.70;9.60;;;25.30;78.40;;;;;;6267289;22;20151;-67
2023/06/30 00:08:51;;;;;;;13.90;10.77;;;25.30;78.40;;;;;;6238693;22;20409;-66
2023/06/30 00:11:21;;;;;;;13.17;10.60;;;25.30;78.60;;;;;;6266993;22;20158;-67
2023/06/30 00:13:46;;;;;;;13.87;10.87;;;25.30;79.10;;;;;;6266227;22;20370;-67
2023/06/30 00:16:12;;;;;;;11.90;9.90;;;25.30;79.60;;;;;;6268328;22;20377;-67
2023/06/30 00:18:38;;;;;;;13.00;9.90;;;25.20;80.20;;;;;;6265722;22;20235;-67
2023/06/30 00:21:03;;;;;;;12.90;9.23;;;25.10;80.50;;;;;;6266218;22;20174;-67
2023/06/30 00:23:29;;;;;;;12.30;8.57;;;25.10;80.80;;;;;;6267125;22;20622;-67
2023/06/30 00:25:55;;;;;;;11.10;8.93;;;25.00;80.80;;;;;;6266502;22;20216;-66
2023/06/30 00:28:20;;;;;;;11.03;9.93;;;25.00;81.20;;;;;;6238202;22;20269;-66
2023/06/30 00:30:46;;;;;;;11.93;9.27;;;25.00;81.60;;;;;;6266451;22;20369;-66
2023/06/30 00:33:12;;;;;;;15.47;10.10;;;25.00;81.90;;;;;;6267367;22;20160;-66
2023/06/30 00:35:37;;;;;;;10.33;9.33;;;25.00;82.00;;;;;;6266894;22;20233;-66
2023/06/30 00:38:03;;;;;;;11.47;9.90;;;25.00;81.70;;;;;;6264534;22;20171;-66
2023/06/30 00:40:29;;;;;;;15.67;9.90;;;25.00;82.20;;;;;;6267282;22;20159;-66
2023/06/30 00:42:54;;;;;;;11.67;10.37;;;25.00;82.00;;;;;;6267600;22;20178;-66
2023/06/30 00:45:20;;;;;;;15.47;10.10;;;25.00;81.90;;;;;;6266593;22;20150;-66
2023/06/30 00:47:45;;;;;;;12.70;9.93;;;25.00;82.50;;;;;;6267608;22;20671;-66
2023/06/30 00:50:12;;;;;;;10.87;9.37;;;24.90;83.30;;;;;;6266863;22;20153;-66
2023/06/30 00:52:38;;;;;;;12.70;9.73;;;24.90;83.60;;;;;;6267394;22;20889;-66
2023/06/30 00:55:05;;;;;;;12.53;9.87;;;24.90;83.90;;;;;;6267411;22;20488;-66
2023/06/30 00:57:30;;;;;;;11.70;10.27;;;24.80;84.40;;;;;;6267810;22;20146;-66
2023/06/30 00:59:56;;;;;;;13.50;11.00;;;24.70;85.10;;;;;;6266475;22;20417;-66
2023/06/30 01:02:27;;;;;;;12.97;10.47;;;24.60;85.20;;;;;;6266545;22;20196;-66
2023/06/30 01:05:14;;;;;;;13.60;10.30;;;24.60;85.70;;;;;;6266156;22;20200;-66
2023/06/30 01:07:48;;;;;;;12.73;10.53;;;24.60;86.10;;;;;;6265550;22;20376;-66
2023/06/30 01:10:16;;;;;;;11.30;9.30;;;24.50;87.40;;;;;;6264644;22;20382;-66
2023/06/30 01:12:44;;;;;;;10.63;9.67;;;24.50;87.80;;;;;;6239275;22;20722;-67
2023/06/30 01:15:11;;;;;;;11.20;10.00;;;24.50;87.90;;;;;;6266754;22;20373;-66
2023/06/30 01:17:45;;;;;;;12.33;9.60;;;24.40;90.10;;;;;;6264893;22;20506;-66
2023/06/30 01:20:13;;;;;;;9.87;8.93;;;24.30;90.60;;;;;;6265571;22;20382;-67
2023/06/30 01:22:40;;;;;;;10.50;9.50;;;24.40;90.90;;;;;;6266989;22;20467;-67
2023/06/30 01:25:19;;;;;;;12.53;9.50;;;24.40;91.20;;;;;;6266168;22;20366;-67
2023/06/30 01:27:45;;;;;;;11.60;9.33;;;24.40;91.50;;;;;;6265142;22;20385;-67
2023/06/30 01:30:11;;;;;;;12.17;9.43;;;24.30;90.80;;;;;;6266422;22;20373;-67
2023/06/30 01:32:37;;;;;;;11.40;9.53;;;24.30;90.30;;;;;;6266227;22;20373;-67
2023/06/30 01:35:03;;;;;;;10.80;9.70;;;24.10;90.20;;;;;;6265760;22;20857;-67
2023/06/30 01:37:29;;;;;;;9.83;8.73;;;24.20;90.10;;;;;;6265618;22;20383;-66
2023/06/30 01:39:54;;;;;;;10.53;9.50;;;24.20;90.00;;;;;;6263166;22;20883;-67
2023/06/30 01:42:20;;;;;;;12.13;8.90;;;24.20;89.80;;;;;;6264532;22;20235;-67
2023/06/30 01:44:47;;;;;;;11.70;9.80;;;24.20;89.60;;;;;;6266505;22;20146;-67
2023/06/30 01:47:13;;;;;;;10.57;9.47;;;24.10;89.70;;;;;;6266391;22;20650;-67
2023/06/30 01:49:39;;;;;;;10.17;9.10;;;23.90;90.30;;;;;;6266017;22;20463;-66
2023/06/30 01:52:05;;;;;;;9.80;8.23;;;24.00;90.40;;;;;;6266544;22;20200;-66
2023/06/30 01:54:30;;;;;;;14.83;10.30;;;24.10;90.30;;;;;;6265989;22;20618;-67
2023/06/30 01:56:56;;;;;;;10.27;9.23;;;24.10;90.20;;;;;;6266704;22;20733;-66
2023/06/30 01:59:21;;;;;;;10.17;9.13;;;24.10;90.30;;;;;;6266971;22;20174;-66
2023/06/30 02:01:48;;;;;;;9.30;8.30;;;24.10;90.00;;;;;;6267314;22;20186;-66
2023/06/30 02:04:14;;;;;;;9.63;8.63;;;24.00;90.30;;;;;;6264590;22;20146;-66
2023/06/30 02:06:39;;;;;;;11.13;9.57;;;24.00;90.30;;;;;;6266578;22;20376;-67
2023/06/30 02:09:05;;;;;;;11.80;10.00;;;24.00;90.30;;;;;;6266619;22;20200;-67
2023/06/30 02:11:30;;;;;;;10.87;9.03;;;24.00;90.30;;;;;;6267076;22;20232;-66
2023/06/30 02:13:56;;;;;;;10.70;9.27;;;23.90;90.70;;;;;;6265832;22;20174;-66
2023/06/30 02:16:21;;;;;;;12.27;9.60;;;23.80;90.90;;;;;;6265634;22;20149;-66
2023/06/30 02:18:47;;;;;;;12.50;9.97;;;23.90;90.80;;;;;;6265833;22;20171;-66
2023/06/30 02:21:13;;;;;;;12.80;10.87;;;23.80;91.00;;;;;;6267164;22;20158;-66
2023/06/30 02:23:38;;;;;;;10.70;9.60;;;23.60;91.60;;;;;;6267108;22;20192;-66
2023/06/30 02:26:04;;;;;;;13.17;9.20;;;23.60;92.30;;;;;;6266158;22;20377;-65
2023/06/30 02:28:29;;;;;;;11.67;9.77;;;23.60;92.80;;;;;;6266173;22;20207;-66
2023/06/30 02:30:55;;;;;;;10.10;9.00;;;23.50;93.60;;;;;;6265296;22;20146;-66
2023/06/30 02:33:21;;;;;;;10.70;9.67;;;23.60;94.50;;;;;;6264564;22;20155;-67
2023/06/30 02:35:46;;;;;;;11.13;9.87;;;23.50;94.80;;;;;;6265409;22;20362;-66
2023/06/30 02:38:12;;;;;;;14.10;10.50;;;23.60;95.10;;;;;;6263643;22;20667;-67
2023/06/30 02:40:37;;;;;;;10.40;9.40;;;23.40;95.40;;;;;;6265637;22;20423;-67
2023/06/30 02:43:03;;;;;;;12.33;9.53;;;23.40;95.80;;;;;;6259708;22;20258;-67
2023/06/30 02:45:29;;;;;;;14.60;11.03;;;23.40;96.90;;;;;;6264666;22;20151;-67
2023/06/30 02:47:54;;;;;;;10.90;9.73;;;23.40;97.60;;;;;;6265037;22;20928;-67
2023/06/30 02:50:29;;;;;;;14.00;10.80;;;23.40;98.40;;;;;;6264976;22;20154;-66
2023/06/30 02:52:55;;;;;;;11.27;9.77;;;23.50;99.40;;;;;;6265298;22;20546;-67
2023/06/30 02:55:21;;;;;;;15.30;11.63;;;23.50;99.90;;;;;;6264958;22;20446;-67
2023/06/30 02:57:46;;;;;;;12.13;10.50;;;23.50;99.90;;;;;;6265577;22;20383;-67
2023/06/30 03:00:12;;;;;;;10.50;9.40;;;23.40;99.90;;;;;;6263575;22;20603;-67
2023/06/30 03:02:38;;;;;;;11.07;9.97;;;23.40;99.90;;;;;;6265357;22;20188;-67
2023/06/30 03:05:04;;;;;;;12.60;10.40;;;23.40;99.90;;;;;;6265278;22;20396;-67
2023/06/30 03:07:30;;;;;;;11.57;10.37;;;23.40;99.90;;;;;;6265819;22;20150;-67
2023/06/30 03:09:56;;;;;;;13.13;10.10;;;23.30;99.90;;;;;;6265458;22;20419;-67
2023/06/30 03:12:21;;;;;;;12.20;11.00;;;23.20;99.90;;;;;;6264354;22;20154;-67
2023/06/30 03:14:47;;;;;;;12.30;10.40;;;23.30;99.90;;;;;;6266713;22;20185;-67
2023/06/30 03:17:13;;;;;;;12.13;10.13;;;23.20;99.90;;;;;;6265232;22;20173;-67
2023/06/30 03:19:38;;;;;;;11.33;10.07;;;23.10;99.90;;;;;;6264298;22;20659;-67
2023/06/30 03:22:04;;;;;;;12.03;10.53;;;23.20;99.90;;;;;;6264990;22;20186;-67
2023/06/30 03:24:29;;;;;;;11.60;10.30;;;23.20;99.90;;;;;;6266060;22;20151;-67
2023/06/30 03:26:55;;;;;;;11.33;10.23;;;23.20;99.90;;;;;;6265709;22;20143;-67
2023/06/30 03:29:20;;;;;;;12.90;10.80;;;23.00;99.90;;;;;;6265966;22;20495;-67
2023/06/30 03:31:46;;;;;;;13.63;9.73;;;23.10;99.90;;;;;;6266465;22;20591;-67
2023/06/30 03:34:11;;;;;;;11.63;10.43;;;23.00;99.90;;;;;;6266532;22;20150;-67
2023/06/30 03:36:37;;;;;;;11.43;10.17;;;22.90;99.90;;;;;;6268205;22;20147;-67
2023/06/30 03:39:04;;;;;;;11.67;10.43;;;23.00;99.90;;;;;;6267784;22;20180;-67
2023/06/30 03:41:30;;;;;;;13.63;11.53;;;22.80;99.90;;;;;;6264741;22;20181;-67
2023/06/30 03:43:56;;;;;;;17.10;11.60;;;22.80;99.90;;;;;;6265211;22;20384;-67
2023/06/30 03:46:22;;;;;;;12.63;11.43;;;22.80;99.90;;;;;;6266631;22;20461;-67
2023/06/30 03:48:47;;;;;;;13.97;11.20;;;22.80;99.90;;;;;;6267139;22;20166;-67
2023/06/30 03:51:13;;;;;;;12.90;11.50;;;22.80;99.90;;;;;;6267350;22;20183;-67
2023/06/30 03:53:41;;;;;;;12.30;10.93;;;22.80;99.90;;;;;;6266741;22;20147;-67
2023/06/30 03:56:07;;;;;;;12.90;10.53;;;22.80;99.90;;;;;;6263987;22;20500;-67
2023/06/30 03:58:33;;;;;;;11.70;10.60;;;22.80;99.90;;;;;;6266004;22;20389;-67
2023/06/30 04:00:58;;;;;;;11.80;10.70;;;22.90;99.90;;;;;;6267371;22;20927;-67
2023/06/30 04:03:25;;;;;;;12.50;10.90;;;22.80;99.90;;;;;;6266352;22;20663;-67
2023/06/30 04:05:51;;;;;;;15.23;12.00;;;22.70;99.90;;;;;;6266370;22;20566;-67
2023/06/30 04:08:16;;;;;;;13.50;11.30;;;22.80;99.90;;;;;;6264514;22;20393;-67
2023/06/30 04:10:42;;;;;;;14.30;12.37;;;22.60;99.90;;;;;;6265247;22;20749;-67
2023/06/30 04:13:08;;;;;;;17.17;11.57;;;22.60;99.90;;;;;;6239986;22;20153;-67
2023/06/30 04:15:33;;;;;;;12.13;11.00;;;22.60;99.90;;;;;;6268435;22;20464;-67
2023/06/30 04:17:59;;;;;;;14.07;12.10;;;22.50;99.90;;;;;;6267603;22;20171;-67
2023/06/30 04:20:25;;;;;;;13.50;11.40;;;22.50;99.90;;;;;;6266847;22;20155;-67
2023/06/30 04:22:51;;;;;;;14.53;13.03;;;22.40;99.90;;;;;;6267781;22;20201;-67
2023/06/30 04:25:17;;;;;;;15.40;12.30;;;22.50;99.90;;;;;;6267895;22;20377;-67
2023/06/30 04:27:43;;;;;;;13.83;11.73;;;22.50;99.90;;;;;;6267342;22;20456;-67
2023/06/30 04:30:08;;;;;;;15.00;13.40;;;22.40;99.90;;;;;;6268066;22;20146;-67
2023/06/30 04:32:34;;;;;;;12.60;11.37;;;22.50;99.90;;;;;;6267177;22;20226;-67
2023/06/30 04:35:00;;;;;;;12.47;11.23;;;22.50;99.90;;;;;;6268362;22;20179;-67
2023/06/30 04:37:29;;;;;;;13.43;11.60;;;22.50;99.90;;;;;;6268054;22;20161;-67
2023/06/30 04:39:58;;;;;;;13.93;12.43;;;22.60;99.90;;;;;;6268075;22;20174;-67
2023/06/30 04:42:27;;;;;;;15.30;13.47;;;22.30;99.90;;;;;;6267207;22;20412;-67
2023/06/30 04:44:52;;;;;;;18.90;13.53;;;22.40;99.90;;;;;;6266221;22;20373;-67
2023/06/30 04:47:18;;;;;;;15.60;14.10;;;22.50;99.90;;;;;;6265700;22;20931;-68
2023/06/30 04:49:44;;;;;;;16.90;13.70;;;22.50;99.90;;;;;;6266815;22;20171;-68
2023/06/30 04:52:09;;;;;;;16.57;11.83;;;22.60;99.90;;;;;;6267277;22;20497;-68
2023/06/30 04:54:35;;;;;;;16.73;13.90;;;22.60;99.90;;;;;;6267920;22;20653;-67
2023/06/30 04:57:00;;;;;;;16.73;13.13;;;22.70;99.90;;;;;;6268175;22;20192;-67
2023/06/30 04:59:26;;;;;;;14.60;12.53;;;22.70;99.90;;;;;;6266735;22;20174;-67
2023/06/30 05:01:51;;;;;;;16.17;12.60;;;22.70;99.90;;;;;;6265869;22;20181;-67
2023/06/30 05:04:17;;;;;;;14.93;12.17;;;22.80;99.90;;;;;;6267612;22;20598;-67
2023/06/30 05:06:43;;;;;;;14.33;12.93;;;22.80;99.90;;;;;;6267791;22;20147;-67
2023/06/30 05:09:09;;;;;;;15.57;14.07;;;22.80;99.90;;;;;;6266684;22;20393;-67
2023/06/30 05:11:34;;;;;;;15.40;12.80;;;22.80;99.90;;;;;;6265843;22;20236;-67
2023/06/30 05:14:00;;;;;;;18.77;16.87;;;22.80;99.90;;;;;;6267778;22;20492;-67
2023/06/30 05:16:26;;;;;;;14.20;12.77;;;22.90;99.90;;;;;;6266645;22;20693;-67
2023/06/30 05:18:52;;;;;;;14.80;13.20;;;22.90;99.90;;;;;;6267802;22;20425;-67
2023/06/30 05:21:17;;;;;;;16.80;12.30;;;22.90;99.90;;;;;;6265842;22;20178;-67
2023/06/30 05:23:43;;;;;;;14.00;12.47;;;23.00;99.90;;;;;;6267876;22;20142;-67
2023/06/30 05:26:10;;;;;;;15.80;13.33;;;23.00;99.90;;;;;;6267433;22;20151;-68
2023/06/30 05:28:35;;;;;;;13.90;12.50;;;22.90;99.90;;;;;;6266388;22;20169;-67
2023/06/30 05:31:01;;;;;;;14.33;12.83;;;22.80;99.90;;;;;;6265318;22;20365;-68
2023/06/30 05:33:27;;;;;;;15.80;14.23;;;22.80;99.90;;;;;;6266046;22;20155;-67
2023/06/30 05:35:53;;;;;;;13.90;12.60;;;22.80;99.90;;;;;;6266904;22;20373;-67
2023/06/30 05:38:18;;;;;;;15.40;13.80;;;22.90;99.90;;;;;;6265873;22;20257;-67
2023/06/30 05:40:44;;;;;;;14.87;13.30;;;23.00;99.90;;;;;;6265529;22;20455;-69
2023/06/30 05:43:10;;;;;;;16.17;14.43;;;23.00;99.90;;;;;;6264618;22;20174;-67
2023/06/30 05:45:35;;;;;;;15.33;13.47;;;22.70;99.90;;;;;;6265650;22;20173;-67
2023/06/30 05:48:01;;;;;;;16.67;13.77;;;22.80;99.90;;;;;;6267405;22;20167;-67
2023/06/30 05:50:27;;;;;;;21.93;12.80;;;22.90;99.90;;;;;;6264220;22;20146;-67
2023/06/30 05:52:53;;;;;;;18.33;12.80;;;22.90;99.90;;;;;;6266282;22;20150;-67
2023/06/30 05:55:19;;;;;;;15.77;13.17;;;22.70;99.90;;;;;;6264211;22;20427;-67
2023/06/30 05:57:44;;;;;;;15.77;13.43;;;22.70;99.90;;;;;;6266722;22;20150;-67
2023/06/30 06:00:10;;;;;;;15.73;14.03;;;22.60;99.90;;;;;;6265826;22;20231;-67
2023/06/30 06:02:36;;;;;;;14.33;12.60;;;22.60;99.90;;;;;;6265500;22;20261;-68
2023/06/30 06:05:02;;;;;;;16.33;14.30;;;22.70;99.90;;;;;;6265596;22;20841;-68
2023/06/30 06:07:27;;;;;;;19.30;14.67;;;22.70;99.90;;;;;;6266288;22;20154;-67
2023/06/30 06:09:53;;;;;;;20.97;13.63;;;22.60;99.90;;;;;;6265412;22;20611;-67
2023/06/30 06:12:19;;;;;;;14.50;13.00;;;22.70;99.90;;;;;;6265981;22;20166;-67
2023/06/30 06:14:44;;;;;;;15.90;14.27;;;22.70;99.90;;;;;;6264409;22;20606;-67
2023/06/30 06:17:10;;;;;;;14.83;13.33;;;22.70;99.90;;;;;;6265982;22;20380;-68
2023/06/30 06:19:35;;;;;;;15.83;14.20;;;22.70;99.90;;;;;;6264813;22;20170;-68
2023/06/30 06:22:01;;;;;;;19.50;13.40;;;22.80;99.90;;;;;;6260977;22;20552;-68
2023/06/30 06:24:27;;;;;;;17.50;14.97;;;22.90;99.90;;;;;;6235454;22;20189;-67
2023/06/30 06:26:52;;;;;;;16.97;14.00;;;22.90;99.90;;;;;;6266576;22;20142;-67
2023/06/30 06:29:21;;;;;;;15.13;12.87;;;23.00;99.90;;;;;;6263118;22;20894;-67
2023/06/30 06:31:48;;;;;;;14.37;12.97;;;23.10;99.90;;;;;;6265594;22;20173;-66
2023/06/30 06:34:15;;;;;;;14.60;13.20;;;23.10;99.90;;;;;;6263692;22;20455;-67
2023/06/30 06:36:40;;;;;;;14.60;13.10;;;23.00;99.90;;;;;;6239541;22;20385;-67
2023/06/30 06:39:06;;;;;;;20.73;12.50;;;23.10;99.90;;;;;;6266570;22;20480;-67
2023/06/30 06:41:32;;;;;;;13.27;11.87;;;23.30;99.90;;;;;;6262089;22;20226;-66
2023/06/30 06:43:57;;;;;;;13.43;11.90;;;23.30;99.90;;;;;;6263915;22;20230;-67
2023/06/30 06:46:23;;;;;;;13.13;11.40;;;23.40;99.90;;;;;;6266521;22;20401;-67
2023/06/30 06:48:48;;;;;;;19.00;11.40;;;23.40;99.90;;;;;;6262109;22;20180;-66
2023/06/30 06:51:14;;;;;;;12.30;10.93;;;23.40;99.90;;;;;;6263637;22;20496;-67
2023/06/30 06:53:40;;;;;;;13.13;10.30;;;23.40;99.90;;;;;;6266776;22;20216;-67
2023/06/30 06:56:05;;;;;;;13.40;10.60;;;23.40;99.90;;;;;;6256354;22;20153;-67
2023/06/30 06:58:35;;;;;;;13.40;12.10;;;23.40;99.90;;;;;;6260569;22;20170;-67
2023/06/30 07:01:00;;;;;;;11.80;10.70;;;23.50;99.90;;;;;;6237389;22;20169;-67
2023/06/30 07:03:27;;;;;;;11.40;10.27;;;23.60;99.90;;;;;;6264148;22;20421;-67
2023/06/30 07:05:54;;;;;;;13.40;10.03;;;23.60;99.90;;;;;;6264513;22;20242;-67
2023/06/30 07:08:20;;;;;;;13.17;10.13;;;23.60;99.90;;;;;;6264896;22;20484;-67
2023/06/30 07:10:47;;;;;;;12.53;11.23;;;23.70;99.90;;;;;;6267850;22;20401;-67
2023/06/30 07:13:15;;;;;;;11.00;9.90;;;23.70;99.90;;;;;;6267731;22;20151;-67
2023/06/30 07:15:41;;;;;;;13.80;12.50;;;23.70;99.90;;;;;;6263517;22;20424;-67
2023/06/30 07:18:06;;;;;;;16.00;13.47;;;23.70;99.90;;;;;;6266411;22;20820;-67
2023/06/30 07:20:32;;;;;;;17.17;11.87;;;23.70;99.90;;;;;;6262585;22;20669;-67
2023/06/30 07:22:57;;;;;;;12.90;11.60;;;23.80;99.90;;;;;;6264420;22;20644;-67
2023/06/30 07:25:25;;;;;;;13.60;12.20;;;23.70;99.90;;;;;;6266017;22;20465;-67
2023/06/30 07:27:53;;;;;;;15.40;13.57;;;23.50;99.90;;;;;;6239200;22;20158;-67
2023/06/30 07:30:20;;;;;;;16.17;14.67;;;23.60;99.90;;;;;;6267020;22;20392;-67
2023/06/30 07:32:46;;;;;;;18.63;14.33;;;23.50;99.90;;;;;;6266468;22;20373;-67
2023/06/30 07:35:12;;;;;;;16.10;14.50;;;23.60;99.90;;;;;;6266984;22;20837;-67
2023/06/30 07:37:38;;;;;;;15.30;13.77;;;23.50;99.90;;;;;;6264746;22;20155;-67
2023/06/30 07:40:04;;;;;;;17.77;14.23;;;23.50;99.90;;;;;;6268110;22;20751;-67
2023/06/30 07:42:30;;;;;;;20.00;16.47;;;23.50;99.90;;;;;;6266586;22;20174;-67
2023/06/30 07:44:55;;;;;;;14.03;12.53;;;23.60;99.90;;;;;;6267497;22;20448;-67
2023/06/30 07:47:21;;;;;;;13.57;12.17;;;23.50;99.90;;;;;;6265611;22;20597;-67
2023/06/30 07:49:46;;;;;;;14.33;12.63;;;23.50;99.90;;;;;;6267213;22;20473;-67
2023/06/30 07:52:12;;;;;;;16.33;13.67;;;23.50;99.90;;;;;;6267660;22;20343;-67
2023/06/30 07:54:38;;;;;;;15.47;13.87;;;23.50;99.90;;;;;;6265772;22;20381;-68
2023/06/30 07:57:03;;;;;;;17.03;15.20;;;23.60;99.90;;;;;;6263898;22;20154;-68
2023/06/30 07:59:29;;;;;;;18.80;15.10;;;23.60;99.90;;;;;;6265212;22;20174;-67
2023/06/30 08:01:55;;;;;;;19.50;15.30;;;23.70;99.90;;;;;;6263976;22;20421;-67
2023/06/30 08:04:21;;;;;;;20.30;16.47;;;23.60;99.90;;;;;;6265398;22;20147;-67
2023/06/30 08:06:48;;;;;;;19.40;15.73;;;23.60;99.90;;;;;;6265207;22;20226;-68
2023/06/30 08:09:14;;;;;;;22.20;16.53;;;23.60;99.90;;;;;;6265443;22;20421;-67
2023/06/30 08:11:39;;;;;;;22.93;17.97;;;23.60;99.90;;;;;;6266744;22;20227;-68
2023/06/30 08:14:06;;;;;;;22.07;18.40;;;23.50;99.90;;;;;;6265287;22;20162;-67
2023/06/30 08:16:32;;;;;;;22.33;19.00;;;23.40;99.90;;;;;;6264605;22;20158;-68
2023/06/30 08:18:58;;;;;;;23.83;18.40;;;23.30;99.90;;;;;;6266200;22;20389;-68
2023/06/30 08:21:24;;;;;;;28.50;20.90;;;23.20;99.90;;;;;;6266004;22;20401;-68
2023/06/30 08:23:50;;;;;;;26.00;19.47;;;23.20;99.90;;;;;;6238909;22;20158;-68
2023/06/30 08:26:15;;;;;;;27.80;20.20;;;23.20;99.90;;;;;;6237514;22;20860;-68
2023/06/30 08:28:41;;;;;;;25.40;19.37;;;23.20;99.90;;;;;;6265548;22;20170;-68
2023/06/30 08:31:07;;;;;;;26.97;18.90;;;23.10;99.90;;;;;;6266591;22;20372;-67
2023/06/30 08:33:32;;;;;;;23.43;18.97;;;22.90;99.90;;;;;;6266013;22;20151;-67
2023/06/30 08:35:58;;;;;;;26.10;20.40;;;22.90;99.90;;;;;;6265283;22;20178;-68
2023/06/30 08:38:24;;;;;;;32.33;19.87;;;22.90;99.90;;;;;;6265711;22;20853;-67
2023/06/30 08:40:49;;;;;;;26.13;19.50;;;23.00;99.90;;;;;;6266505;22;20374;-67
2023/06/30 08:43:15;;;;;;;26.77;19.53;;;22.90;99.90;;;;;;6266295;22;20276;-67
2023/06/30 08:45:43;;;;;;;25.30;20.27;;;22.80;99.90;;;;;;6263705;22;20524;-66
2023/06/30 08:48:09;;;;;;;25.20;20.77;;;22.80;99.90;;;;;;6265262;22;20171;-67
2023/06/30 08:50:35;;;;;;;28.93;22.77;;;22.70;99.90;;;;;;6262691;22;20401;-67
2023/06/30 08:53:02;;;;;;;33.70;22.20;;;22.80;99.90;;;;;;6268052;22;20175;-67
2023/06/30 08:55:27;;;;;;;27.17;20.50;;;22.90;99.90;;;;;;6263449;22;20423;-66
2023/06/30 08:57:57;;;;;;;30.47;21.67;;;23.00;99.90;;;;;;6264377;22;20432;-66
2023/06/30 09:00:24;;;;;;;32.13;22.93;;;23.10;99.90;;;;;;6266339;22;20213;-66
2023/06/30 09:02:51;;;;;;;27.10;22.70;;;23.10;99.90;;;;;;6265884;22;20421;-66
2023/06/30 09:05:16;;;;;;;29.40;21.50;;;23.10;99.90;;;;;;6266334;22;20381;-66
2023/06/30 09:07:52;;;;;;;31.37;22.40;;;23.20;99.90;;;;;;6264449;22;20370;-66
2023/06/30 09:10:18;;;;;;;26.97;20.80;;;23.10;99.90;;;;;;6241010;22;20138;-66
2023/06/30 09:12:46;;;;;;;32.20;22.27;;;23.20;99.90;;;;;;6264520;22;20382;-66
2023/06/30 09:15:14;;;;;;;29.43;20.80;;;23.20;99.90;;;;;;6266449;22;20377;-66
2023/06/30 09:17:40;;;;;;;30.07;22.60;;;23.10;99.90;;;;;;6266093;22;20592;-67
2023/06/30 09:20:06;;;;;;;30.27;20.80;;;23.00;99.90;;;;;;6265572;22;20416;-67
2023/06/30 09:22:33;;;;;;;28.13;23.10;;;23.00;99.90;;;;;;6264896;22;20235;-67
2023/06/30 09:24:59;;;;;;;31.10;22.83;;;23.00;99.90;;;;;;6266820;22;20449;-68
2023/06/30 09:27:26;;;;;;;26.60;21.50;;;23.10;99.90;;;;;;6267265;22;20377;-67
2023/06/30 09:29:55;;;;;;;24.27;20.67;;;23.20;99.90;;;;;;6264295;22;20476;-67
2023/06/30 09:32:32;;;;;;;29.07;22.97;;;23.20;99.90;;;;;;6235974;22;20389;-67
2023/06/30 09:35:06;;;;;;;28.33;21.00;;;23.20;99.90;;;;;;6266279;22;20373;-67
2023/06/30 09:37:41;;;;;;;27.07;21.40;;;23.20;99.90;;;;;;6261893;22;20422;-67
2023/06/30 09:40:23;;;;;;;24.97;20.20;;;23.30;99.90;;;;;;6263230;22;20357;-67
2023/06/30 09:42:52;;;;;;;27.03;22.03;;;23.30;99.90;;;;;;6265189;22;20484;-67
2023/06/30 09:45:17;;;;;;;29.70;21.30;;;23.20;99.90;;;;;;6263832;22;20369;-67
2023/06/30 09:47:43;;;;;;;27.13;21.60;;;23.30;99.90;;;;;;6263020;22;20385;-67
2023/06/30 09:50:10;;;;;;;27.27;21.37;;;23.40;99.90;;;;;;6265063;22;20157;-67
2023/06/30 09:52:37;;;;;;;25.60;20.53;;;23.30;99.90;;;;;;6265294;22;20146;-67
2023/06/30 09:55:09;;;;;;;26.33;21.50;;;23.40;99.90;;;;;;6264433;22;20377;-67
2023/06/30 09:57:37;;;;;;;25.80;21.03;;;23.50;99.90;;;;;;6264190;22;20414;-67
2023/06/30 10:00:04;;;;;;;26.20;22.10;;;23.60;99.90;;;;;;6265681;22;20396;-67
2023/06/30 10:02:31;;;;;;;26.27;21.30;;;23.70;99.90;;;;;;6265161;22;20405;-68
2023/06/30 10:04:56;;;;;;;27.37;20.60;;;23.80;99.90;;;;;;6263163;22;20460;-68
2023/06/30 10:07:23;;;;;;;33.17;23.03;;;23.80;99.90;;;;;;6236799;22;20385;-67
2023/06/30 10:09:50;;;;;;;27.80;20.87;;;23.90;99.90;;;;;;6264682;22;20177;-67
2023/06/30 10:12:18;;;;;;;25.30;21.50;;;24.00;99.90;;;;;;6264515;22;20877;-67
2023/06/30 10:14:45;;;;;;;29.97;21.53;;;23.90;99.90;;;;;;6263680;22;20388;-67
2023/06/30 10:17:11;;;;;;;26.50;20.87;;;23.90;99.90;;;;;;6264213;22;20377;-67
2023/06/30 10:19:38;;;;;;;25.37;20.57;;;24.10;99.90;;;;;;6235953;22;20405;-68
2023/06/30 10:22:04;;;;;;;25.80;19.30;;;24.20;99.90;;;;;;6266846;22;20495;-67
2023/06/30 10:24:37;;;;;;;24.93;20.50;;;24.40;99.90;;;;;;6265027;22;20467;-67
2023/06/30 10:27:05;;;;;;;24.43;19.70;;;24.40;99.90;;;;;;6264274;22;20131;-67
2023/06/30 10:29:31;;;;;;;24.40;19.87;;;24.40;99.90;;;;;;6265230;22;20912;-67
2023/06/30 10:31:58;;;;;;;25.93;20.97;;;24.50;99.90;;;;;;6266489;22;20387;-68
2023/06/30 10:34:24;;;;;;;31.03;23.63;;;24.60;99.90;;;;;;6263687;22;20493;-68
2023/06/30 10:36:50;;;;;;;22.30;19.80;;;24.70;99.90;;;;;;6265351;22;20569;-68
2023/06/30 10:39:17;;;;;;;26.03;21.07;;;24.80;99.90;;;;;;6263184;22;20484;-67
2023/06/30 10:41:47;;;;;;;25.80;19.87;;;24.90;99.90;;;;;;6262388;22;20416;-68
2023/06/30 10:44:13;;;;;;;28.40;20.20;;;24.90;99.90;;;;;;6267012;22;20370;-67
2023/06/30 10:46:47;;;;;;;22.53;19.70;;;24.90;99.90;;;;;;6267571;22;20385;-67
2023/06/30 10:49:26;;;;;;;23.50;19.30;;;25.00;99.90;;;;;;6262500;22;20388;-68
2023/06/30 10:51:54;;;;;;;24.80;20.87;;;25.00;99.90;;;;;;6266132;22;20361;-68
2023/06/30 10:54:31;;;;;;;23.87;20.40;;;25.00;99.90;;;;;;6267807;22;20405;-67
2023/06/30 10:57:06;;;;;;;20.10;17.90;;;25.10;99.90;;;;;;6263435;22;20808;-68
2023/06/30 10:59:42;;;;;;;24.30;18.77;;;25.20;99.90;;;;;;6266319;22;20395;-68
2023/06/30 11:02:12;;;;;;;23.30;19.33;;;25.10;99.90;;;;;;6265816;22;20411;-68
2023/06/30 11:04:39;;;;;;;27.23;18.60;;;25.00;99.90;;;;;;6265169;22;20373;-67
2023/06/30 11:07:06;;;;;;;24.10;19.03;;;25.00;99.90;;;;;;6266455;22;20559;-68
2023/06/30 11:09:47;;;;;;;23.57;19.13;;;25.30;99.90;;;;;;6267305;22;20401;-67
2023/06/30 11:12:27;;;;;;;23.10;19.10;;;25.30;99.90;;;;;;6267088;22;20377;-68
2023/06/30 11:14:57;;;;;;;25.67;19.50;;;25.60;99.90;;;;;;6266030;22;20357;-68
2023/06/30 11:17:27;;;;;;;22.63;18.40;;;25.60;99.90;;;;;;6265721;22;20760;-66
2023/06/30 11:20:01;;;;;;;25.40;20.83;;;25.60;99.90;;;;;;6264861;22;20472;-66
2023/06/30 11:22:30;;;;;;;24.33;19.50;;;25.60;99.90;;;;;;6267486;22;20876;-67
2023/06/30 11:24:56;;;;;;;22.30;19.77;;;25.80;99.90;;;;;;6265442;22;20369;-67
2023/06/30 11:27:22;;;;;;;25.00;19.50;;;26.00;99.90;;;;;;6268138;22;20380;-66
2023/06/30 11:29:49;;;;;;;23.30;20.20;;;26.00;99.90;;;;;;6266294;22;20170;-66
2023/06/30 11:32:25;;;;;;;26.17;21.00;;;26.00;99.90;;;;;;6266173;22;20606;-66
2023/06/30 11:34:51;;;;;;;28.37;20.67;;;25.80;99.90;;;;;;6265871;22;20478;-66
2023/06/30 11:37:17;;;;;;;23.50;20.47;;;25.60;99.90;;;;;;6266837;22;20719;-67
2023/06/30 11:39:50;;;;;;;27.07;21.20;;;25.80;99.90;;;;;;6265933;22;20389;-67
2023/06/30 11:42:16;;;;;;;23.43;20.47;;;25.80;99.90;;;;;;6265639;22;20419;-66
2023/06/30 11:44:41;;;;;;;20.50;17.03;;;25.60;99.90;;;;;;6265029;22;20400;-66
2023/06/30 11:47:07;;;;;;;15.03;12.93;;;25.60;99.90;;;;;;6265159;22;20150;-66
2023/06/30 11:49:39;;;;;;;17.00;12.17;;;25.60;99.90;;;;;;6262200;22;20171;-67
2023/06/30 11:52:05;;;;;;;14.27;11.67;;;25.60;99.90;;;;;;6239845;22;20637;-67
2023/06/30 11:54:35;;;;;;;14.20;11.67;;;25.30;99.90;;;;;;6265548;22;20412;-67
2023/06/30 11:57:02;;;;;;;19.27;11.87;;;25.20;99.90;;;;;;6264646;22;20503;-67
2023/06/30 11:59:28;;;;;;;14.57;11.00;;;25.00;99.90;;;;;;6265894;22;20424;-67
2023/06/30 12:01:53;;;;;;;13.47;11.53;;;24.80;99.90;;;;;;6263718;22;20482;-68
2023/06/30 12:04:22;;;;;;;15.20;11.90;;;24.50;99.90;;;;;;6264838;22;20151;-67
2023/06/30 12:06:54;;;;;;;13.87;11.37;;;24.40;99.90;;;;;;6265483;22;20147;-69
2023/06/30 12:09:21;;;;;;;19.00;14.90;;;24.10;99.90;;;;;;6265436;22;20740;-69
2023/06/30 12:11:50;;;;;;;18.33;15.40;;;23.80;99.90;;;;;;6265858;22;20370;-68
2023/06/30 12:14:17;;;;;;;22.37;15.70;;;23.20;99.90;;;;;;6266974;22;20430;-67
2023/06/30 12:16:43;;;;;;;22.33;16.80;;;22.80;99.90;;;;;;6264339;22;20432;-67
2023/06/30 12:19:09;;;;;;;22.77;18.73;;;22.50;99.90;;;;;;6266516;22;20403;-68
2023/06/30 12:21:35;;;;;;;26.10;17.07;;;22.20;99.90;;;;;;6266441;22;20680;-68
2023/06/30 12:24:04;;;;;;;23.40;17.70;;;22.00;99.90;;;;;;6265873;22;20238;-68
2023/06/30 12:26:30;;;;;;;20.40;16.60;;;21.90;99.90;;;;;;6239981;22;20381;-69